Aérodrome :
LOGIN :

S'inscrire | Disclaimer

   EN    FR    IT 

 










Légende :    VFR   VFR Marginal   IFR   IFR Intensif   IFR Très Intensif
Visi : 
Plafond : 
>= 8 km
>= 3000ft
5 à 8 km
1000 à 3000 ft
1500m à 5 km
500 à 1000 ft
800 à 1500m
200 à 500 ft
< 800m
< 200 ft
Symboles :   Orages  Brouillard  Fortes neiges  Fortes précipitations  Vent > 20 kt
SIGMETs :   Divers  Orages  Givrage  Turbulence  Onde Orograph.  Cendres Volcan.






- Altitude de l'aérodrome : 523 ft
- Code IATA : AUF


LFLA - Auxerre

DERNIER METAR :
  • 220100Z AUTO 20016KT 160V220 9999 -RA BKN011/// BKN019/// OVC029/// 10/08 Q1006

METARs EXPIRÉS :
  • 220030Z AUTO 20016KT 160V220 9999 RA BKN011/// BKN016/// BKN026/// 09/08 Q1007
  • 220000Z AUTO 20017KT 7000 -RA BKN012/// OVC018/// 09/08 Q1007
  • 212330Z AUTO 20018KT 9999 -RA BKN014/// OVC025/// 09/07 Q1008
  • 212300Z AUTO 20018KT 9000 RA BKN014/// BKN020/// BKN033/// 09/08 Q1009
  • 212230Z AUTO 20017KT 170V230 7000 -RA BKN014/// BKN021/// BKN029/// 09/08 Q1009
  • 212200Z AUTO 20017G28KT 170V240 9999 -RA FEW019/// SCT030/// BKN052/// 09/07 Q1010
  • 212130Z AUTO 20016KT 9999 -RA FEW022/// BKN056/// OVC078/// 09/07 Q1010
  • 212100Z AUTO 20017G27KT 9999 -RA FEW027/// BKN078/// OVC092/// 09/07 Q1010
  • 212030Z AUTO 20016KT 9999 RA NCD 09/07 Q1011

TAF N/A



MET'MAP, la Météo Aéronautique d'un coup d'oeil ! - Copyright ORBIFLY Décembre 2007 - Disclaimer

ORBIFLY MET'MAP TEAM :

Programmation & Développement : Alexandra Zaïnal
Sur une idée originale de : Baudouin d'Aumeries
Soutien technique & logistique : Manuel Goepfert
Assistance : Marc-Olivier Méhu




SOURCES & CREDITS :

   NOAA